Time;durP1;ratioP1;P1;durP2;ratioP2;P2;SDS_P1;SDS_P2;PMS_P1;PMS_P2;Temp;Humidity;BMP_temperature;BMP_pressure;BME280_temperature;BME280_humidity;BME280_pressure;Samples;Min_cycle;Max_cycle;Signal;HPM_P1;HPM_P2
2023/02/09 00:02:04;;;;;;;;;;;-3.90;92.30;;;;;;4885011;29;19923;-83
2023/02/09 00:04:30;;;;;;;;;;;-3.90;92.40;;;;;;4903573;29;19927;-83
2023/02/09 00:06:55;;;;;;;;;;;-4.00;92.50;;;;;;4907973;29;20030;-83
2023/02/09 00:09:21;;;;;;;;;;;-4.00;92.60;;;;;;4909689;29;19920;-83
2023/02/09 00:14:32;;;;;;;;;;;-4.00;92.70;;;;;;4917030;23;19934;-80
2023/02/09 00:17:00;;;;;;;;;;;-4.00;92.90;;;;;;4888011;29;19951;-79
2023/02/09 00:19:25;;;;;;;;;;;-4.00;92.90;;;;;;4885329;29;19916;-80
2023/02/09 00:21:51;;;;;;;;;;;-4.10;93.00;;;;;;4881376;29;19926;-79
2023/02/09 00:24:16;;;;;;;;;;;-4.10;93.10;;;;;;4910387;29;19924;-79
2023/02/09 00:26:42;;;;;;;;;;;-4.10;93.30;;;;;;4889986;29;19915;-80
2023/02/09 00:29:08;;;;;;;;;;;-4.10;93.30;;;;;;4888749;29;19918;-81
2023/02/09 00:31:33;;;;;;;;;;;-4.10;93.40;;;;;;4904987;29;19923;-80
2023/02/09 00:33:59;;;;;;;;;;;-4.10;93.40;;;;;;4904745;29;19923;-81
2023/02/09 00:36:25;;;;;;;;;;;-4.10;93.50;;;;;;4896694;29;19918;-81
2023/02/09 00:38:50;;;;;;;;;;;-4.20;93.60;;;;;;4888593;29;19939;-81
2023/02/09 00:41:16;;;;;;;;;;;-4.20;93.80;;;;;;4905400;29;19978;-81
2023/02/09 00:43:41;;;;;;;;;;;-4.10;94.10;;;;;;4887490;29;19923;-81
2023/02/09 00:46:07;;;;;;;;;;;-4.10;94.00;;;;;;4886935;29;19904;-81
2023/02/09 00:48:33;;;;;;;;;;;-4.10;94.10;;;;;;4898248;29;19959;-81
2023/02/09 00:50:59;;;;;;;;;;;-4.10;94.10;;;;;;4889945;29;20081;-80
2023/02/09 00:53:24;;;;;;;;;;;-4.10;94.10;;;;;;4909076;29;19914;-82
2023/02/09 00:55:50;;;;;;;;;;;-4.20;94.10;;;;;;4903790;29;19935;-83
2023/02/09 00:58:16;;;;;;;;;;;-4.20;94.10;;;;;;4903778;29;19916;-82
2023/02/09 01:00:42;;;;;;;;;;;-4.20;94.30;;;;;;4919775;29;19915;-81
2023/02/09 01:03:07;;;;;;;;;;;-4.30;94.20;;;;;;4917521;29;19930;-79
2023/02/09 01:05:36;;;;;;;;;;;-4.30;94.30;;;;;;4906354;29;19911;-79
2023/02/09 01:08:02;;;;;;;;;;;-4.40;94.40;;;;;;4902107;29;19915;-80
2023/02/09 01:10:28;;;;;;;;;;;-4.40;94.60;;;;;;4886074;29;19912;-80
2023/02/09 01:12:53;;;;;;;;;;;-4.40;94.80;;;;;;4903605;29;20439;-79
2023/02/09 01:15:19;;;;;;;;;;;-4.40;94.80;;;;;;4903360;29;19919;-78
2023/02/09 01:17:44;;;;;;;;;;;-4.40;94.90;;;;;;4904814;29;19909;-78
2023/02/09 01:20:11;;;;;;;;;;;-4.40;94.90;;;;;;4879804;29;19963;-80
2023/02/09 01:22:37;;;;;;;;;;;-4.40;95.00;;;;;;4904460;29;19938;-78
2023/02/09 01:25:03;;;;;;;;;;;-4.40;95.10;;;;;;4904127;29;19998;-80
2023/02/09 01:27:28;;;;;;;;;;;-4.40;95.20;;;;;;4904059;29;20022;-80
2023/02/09 01:29:54;;;;;;;;;;;-4.40;95.30;;;;;;4903916;29;19962;-78
2023/02/09 01:32:19;;;;;;;;;;;-4.40;95.30;;;;;;4905470;29;19916;-78
2023/02/09 01:34:48;;;;;;;;;;;-4.40;95.20;;;;;;4902814;29;20238;-79
2023/02/09 01:37:14;;;;;;;;;;;-4.40;95.20;;;;;;4902756;29;19915;-81
2023/02/09 01:39:39;;;;;;;;;;;-4.40;95.20;;;;;;4889926;29;19911;-80
2023/02/09 01:42:05;;;;;;;;;;;-4.40;95.20;;;;;;4904383;29;19912;-80
2023/02/09 01:44:30;;;;;;;;;;;-4.50;95.20;;;;;;4903342;29;19953;-79
2023/02/09 01:46:56;;;;;;;;;;;-4.50;95.50;;;;;;4901347;29;20305;-80
2023/02/09 01:49:26;;;;;;;;;;;-4.50;95.60;;;;;;4891456;29;19916;-80
2023/02/09 01:51:51;;;;;;;;;;;-4.60;95.90;;;;;;4871373;29;19916;-81
2023/02/09 01:54:19;;;;;;;;;;;-4.70;96.10;;;;;;4893599;29;20026;-81
2023/02/09 01:56:47;;;;;;;;;;;-4.70;96.40;;;;;;4889175;29;20010;-81
2023/02/09 01:59:13;;;;;;;;;;;-4.80;96.60;;;;;;4886914;29;19912;-80
2023/02/09 02:01:39;;;;;;;;;;;-4.80;96.80;;;;;;4903652;29;19911;-81
2023/02/09 02:04:05;;;;;;;;;;;-4.80;96.90;;;;;;4903019;29;19987;-80
2023/02/09 02:06:31;;;;;;;;;;;-4.80;97.00;;;;;;4906114;29;20348;-81
2023/02/09 02:09:11;;;;;;;;;;;-4.90;97.20;;;;;;4904409;29;19912;-82
2023/02/09 02:11:37;;;;;;;;;;;-4.90;97.50;;;;;;4907052;29;19987;-81
2023/02/09 02:14:02;;;;;;;;;;;-4.90;97.60;;;;;;4905122;29;19924;-81
2023/02/09 02:16:33;;;;;;;;;;;-4.90;97.60;;;;;;4888568;29;19916;-81
2023/02/09 02:19:08;;;;;;;;;;;-4.80;97.60;;;;;;4897732;29;19912;-81
2023/02/09 02:21:39;;;;;;;;;;;-4.90;97.70;;;;;;4905145;29;19947;-81
2023/02/09 02:24:14;;;;;;;;;;;-4.90;97.70;;;;;;4908355;29;19916;-81
2023/02/09 02:26:52;;;;;;;;;;;-4.80;97.80;;;;;;4908396;29;19926;-80
2023/02/09 02:29:35;;;;;;;;;;;-4.80;97.80;;;;;;4913887;29;19918;-81
2023/02/09 02:32:07;;;;;;;;;;;-4.80;97.80;;;;;;4907851;29;20408;-82
2023/02/09 02:35:11;;;;;;;;;;;-4.90;97.90;;;;;;4910462;29;19919;-80
2023/02/09 02:37:46;;;;;;;;;;;-4.90;97.90;;;;;;4869217;29;19923;-80
2023/02/09 02:40:31;;;;;;;;;;;-4.90;98.00;;;;;;4888926;29;19932;-80
2023/02/09 02:43:12;;;;;;;;;;;-5.00;98.10;;;;;;4876355;29;19907;-81
2023/02/09 02:45:37;;;;;;;;;;;-5.00;98.40;;;;;;4888652;29;19912;-80
2023/02/09 02:48:03;;;;;;;;;;;-5.10;98.60;;;;;;4902984;29;20026;-81
2023/02/09 02:50:30;;;;;;;;;;;-5.10;98.70;;;;;;4912877;29;19918;-81
2023/02/09 02:52:58;;;;;;;;;;;-5.10;98.80;;;;;;4909488;29;20415;-80
2023/02/09 02:55:26;;;;;;;;;;;-5.10;99.00;;;;;;4918369;29;19903;-80
2023/02/09 02:57:54;;;;;;;;;;;-5.00;99.10;;;;;;4903248;29;19935;-80
2023/02/09 03:00:27;;;;;;;;;;;-5.00;99.00;;;;;;4903827;29;19947;-78
2023/02/09 03:02:54;;;;;;;;;;;-5.00;98.90;;;;;;4887350;29;19928;-79
2023/02/09 03:05:21;;;;;;;;;;;-4.90;98.80;;;;;;4903754;29;19911;-78
2023/02/09 03:07:46;;;;;;;;;;;-5.00;98.70;;;;;;4911831;29;19923;-80
2023/02/09 03:10:27;;;;;;;;;;;-4.90;98.40;;;;;;4906019;29;19943;-80
2023/02/09 03:13:11;;;;;;;;;;;-5.00;98.20;;;;;;4922957;29;19923;-79
2023/02/09 03:15:58;;;;;;;;;;;-5.00;98.20;;;;;;4920891;29;20027;-82
2023/02/09 03:18:38;;;;;;;;;;;-4.90;98.30;;;;;;4887953;29;19900;-80
2023/02/09 03:21:14;;;;;;;;;;;-4.90;98.30;;;;;;4903937;29;19915;-80
2023/02/09 03:23:42;;;;;;;;;;;-4.90;98.40;;;;;;4893371;29;19928;-81
2023/02/09 03:26:12;;;;;;;;;;;-4.90;98.30;;;;;;4889619;29;20412;-81
2023/02/09 03:28:38;;;;;;;;;;;-4.90;98.50;;;;;;4883422;29;19924;-81
2023/02/09 03:31:04;;;;;;;;;;;-4.90;98.30;;;;;;4911902;29;19915;-80
2023/02/09 03:33:30;;;;;;;;;;;-4.80;98.40;;;;;;4912812;29;19912;-80
2023/02/09 03:35:57;;;;;;;;;;;-4.80;98.30;;;;;;4915379;29;19915;-81
2023/02/09 03:38:23;;;;;;;;;;;-4.90;98.20;;;;;;4911685;29;19916;-81
2023/02/09 03:40:49;;;;;;;;;;;-4.90;98.20;;;;;;4913701;29;19927;-80
2023/02/09 03:43:15;;;;;;;;;;;-4.90;98.30;;;;;;4910209;29;19931;-81
2023/02/09 03:45:40;;;;;;;;;;;-4.90;98.40;;;;;;4908657;29;20063;-80
2023/02/09 03:48:06;;;;;;;;;;;-4.80;98.40;;;;;;4898743;29;19912;-80
2023/02/09 03:50:33;;;;;;;;;;;-4.80;98.40;;;;;;4906248;29;19915;-81
2023/02/09 03:52:59;;;;;;;;;;;-4.80;98.60;;;;;;4908165;29;19939;-81
2023/02/09 03:55:24;;;;;;;;;;;-4.80;98.40;;;;;;4906246;29;19911;-80
2023/02/09 03:57:50;;;;;;;;;;;-4.70;98.50;;;;;;4905566;29;19912;-81
2023/02/09 04:00:16;;;;;;;;;;;-4.70;98.50;;;;;;4906936;29;19912;-81
2023/02/09 04:02:41;;;;;;;;;;;-4.80;98.30;;;;;;4908457;29;19983;-81
2023/02/09 04:05:07;;;;;;;;;;;-4.80;98.30;;;;;;4907050;29;19911;-81
2023/02/09 04:07:33;;;;;;;;;;;-4.80;98.30;;;;;;4890857;29;20210;-82
2023/02/09 04:09:58;;;;;;;;;;;-4.80;98.30;;;;;;4909114;29;19916;-80
2023/02/09 04:12:24;;;;;;;;;;;-4.80;98.20;;;;;;4890114;29;19926;-81
2023/02/09 04:14:49;;;;;;;;;;;-4.80;98.20;;;;;;4906968;29;20004;-80
2023/02/09 04:17:15;;;;;;;;;;;-4.80;98.10;;;;;;4889240;29;20451;-80
2023/02/09 04:19:40;;;;;;;;;;;-4.90;98.00;;;;;;4887546;29;19916;-81
2023/02/09 04:22:07;;;;;;;;;;;-5.00;98.10;;;;;;4906847;29;20002;-81
2023/02/09 04:24:33;;;;;;;;;;;-5.10;97.90;;;;;;4889643;29;19931;-81
2023/02/09 04:26:58;;;;;;;;;;;-5.10;98.00;;;;;;4906804;29;19922;-80
2023/02/09 04:29:24;;;;;;;;;;;-5.30;98.10;;;;;;4909017;29;20291;-81
2023/02/09 04:31:49;;;;;;;;;;;-5.30;98.00;;;;;;4912607;29;19911;-81
2023/02/09 04:34:15;;;;;;;;;;;-5.40;98.10;;;;;;4895644;29;19982;-82
2023/02/09 04:36:40;;;;;;;;;;;-5.40;98.20;;;;;;4895990;29;19971;-82
2023/02/09 04:39:06;;;;;;;;;;;-5.50;98.10;;;;;;4910851;29;19950;-82
2023/02/09 04:41:31;;;;;;;;;;;-5.50;98.40;;;;;;4909707;29;19919;-83
2023/02/09 04:43:57;;;;;;;;;;;-5.40;98.70;;;;;;4910329;29;19919;-82
2023/02/09 04:46:23;;;;;;;;;;;-5.50;98.60;;;;;;4911120;29;19942;-81
2023/02/09 04:48:48;;;;;;;;;;;-5.50;98.50;;;;;;4901960;29;19912;-83
2023/02/09 04:51:14;;;;;;;;;;;-5.50;98.50;;;;;;4893944;29;19923;-82
2023/02/09 04:53:39;;;;;;;;;;;-5.50;98.70;;;;;;4911522;29;19975;-82
2023/02/09 04:56:05;;;;;;;;;;;-5.50;98.80;;;;;;4912290;29;19908;-81
2023/02/09 05:01:19;;;;;;;;;;;-5.50;99.10;;;;;;4917322;29;19993;-81
2023/02/09 05:03:45;;;;;;;;;;;-5.50;99.10;;;;;;4916609;29;19927;-79
2023/02/09 05:06:10;;;;;;;;;;;-5.50;99.10;;;;;;4907243;29;19916;-83
2023/02/09 05:08:36;;;;;;;;;;;-5.40;99.20;;;;;;4888769;29;20389;-83
2023/02/09 05:11:01;;;;;;;;;;;-5.40;99.30;;;;;;4905278;29;19920;-82
2023/02/09 05:13:27;;;;;;;;;;;-5.40;99.40;;;;;;4905422;29;19916;-82
2023/02/09 05:15:53;;;;;;;;;;;-5.30;99.40;;;;;;4892988;29;19973;-83
2023/02/09 05:18:19;;;;;;;;;;;-5.30;99.40;;;;;;4904620;29;19916;-82
2023/02/09 05:20:45;;;;;;;;;;;-5.30;99.40;;;;;;4905155;29;19957;-83
2023/02/09 05:23:11;;;;;;;;;;;-5.30;99.20;;;;;;4891401;29;19926;-83
2023/02/09 05:25:37;;;;;;;;;;;-5.30;99.00;;;;;;4892723;29;19919;-81
2023/02/09 05:28:03;;;;;;;;;;;-5.40;99.00;;;;;;4891238;29;19917;-81
2023/02/09 05:30:29;;;;;;;;;;;-5.40;99.10;;;;;;4891729;29;20011;-81
2023/02/09 05:32:55;;;;;;;;;;;-5.30;99.10;;;;;;4896706;29;19916;-80
2023/02/09 05:35:20;;;;;;;;;;;-5.30;99.00;;;;;;4904296;29;19930;-83
2023/02/09 05:37:46;;;;;;;;;;;-5.30;98.90;;;;;;4911451;29;19916;-83
2023/02/09 05:40:11;;;;;;;;;;;-5.40;98.80;;;;;;4911956;29;19912;-83
2023/02/09 05:42:37;;;;;;;;;;;-5.40;98.80;;;;;;4895258;29;19922;-81
2023/02/09 05:45:03;;;;;;;;;;;-5.40;98.60;;;;;;4894529;29;19915;-81
2023/02/09 05:47:29;;;;;;;;;;;-5.50;98.40;;;;;;4881810;29;20003;-82
2023/02/09 05:49:54;;;;;;;;;;;-5.60;98.60;;;;;;4894501;29;19912;-83
2023/02/09 05:52:20;;;;;;;;;;;-5.60;98.80;;;;;;4898130;29;19916;-83
2023/02/09 05:54:46;;;;;;;;;;;-5.60;98.80;;;;;;4905718;29;19930;-81
2023/02/09 05:57:12;;;;;;;;;;;-5.60;98.90;;;;;;4889525;29;19956;-83
2023/02/09 05:59:37;;;;;;;;;;;-5.60;98.90;;;;;;4910999;29;19915;-83
2023/02/09 06:02:03;;;;;;;;;;;-5.60;99.10;;;;;;4908551;29;19916;-83
2023/02/09 06:04:29;;;;;;;;;;;-5.60;99.10;;;;;;4909031;29;19919;-83
2023/02/09 06:06:54;;;;;;;;;;;-5.60;99.10;;;;;;4910835;29;19926;-83
2023/02/09 06:09:20;;;;;;;;;;;-5.60;99.50;;;;;;4908744;29;19929;-82
2023/02/09 06:11:46;;;;;;;;;;;-5.60;99.30;;;;;;4910560;29;19998;-83
2023/02/09 06:14:12;;;;;;;;;;;-5.60;99.60;;;;;;4916838;29;19959;-82
2023/02/09 06:16:39;;;;;;;;;;;-5.60;99.60;;;;;;4922028;29;19919;-82
2023/02/09 06:19:05;;;;;;;;;;;-5.60;99.70;;;;;;4914858;29;19911;-81
2023/02/09 06:21:34;;;;;;;;;;;-5.50;99.70;;;;;;4896220;29;19904;-81
2023/02/09 06:23:59;;;;;;;;;;;-5.50;99.60;;;;;;4884220;29;19927;-83
2023/02/09 06:26:25;;;;;;;;;;;-5.50;99.50;;;;;;4915461;29;19911;-81
2023/02/09 06:28:50;;;;;;;;;;;-5.50;99.40;;;;;;4915903;29;19911;-82
2023/02/09 06:31:16;;;;;;;;;;;-5.50;99.40;;;;;;4917114;29;19911;-81
2023/02/09 06:33:41;;;;;;;;;;;-5.50;99.50;;;;;;4899424;29;19916;-80
2023/02/09 06:36:07;;;;;;;;;;;-5.50;99.60;;;;;;4913210;29;19922;-82
2023/02/09 06:38:34;;;;;;;;;;;-5.40;99.60;;;;;;4916042;29;19927;-82
2023/02/09 06:40:59;;;;;;;;;;;-5.40;99.50;;;;;;4916340;29;20461;-80
2023/02/09 06:43:25;;;;;;;;;;;-5.40;99.30;;;;;;4914692;29;19919;-78
2023/02/09 06:45:52;;;;;;;;;;;-5.40;99.00;;;;;;4913838;29;19943;-83
2023/02/09 06:48:18;;;;;;;;;;;-5.40;99.00;;;;;;4884185;29;19912;-81
2023/02/09 06:50:44;;;;;;;;;;;-5.30;99.00;;;;;;4877043;29;20441;-79
2023/02/09 06:53:09;;;;;;;;;;;-5.30;98.60;;;;;;4875494;29;19959;-82
2023/02/09 06:55:35;;;;;;;;;;;-5.30;98.30;;;;;;4894432;29;19931;-81
2023/02/09 06:58:00;;;;;;;;;;;-5.30;98.10;;;;;;4899552;29;19943;-82
2023/02/09 07:00:26;;;;;;;;;;;-5.30;98.10;;;;;;4879139;29;19912;-82
2023/02/09 07:02:52;;;;;;;;;;;-5.30;98.00;;;;;;4893937;29;19948;-81
2023/02/09 07:05:18;;;;;;;;;;;-5.20;97.90;;;;;;4878732;29;19899;-81
2023/02/09 07:07:44;;;;;;;;;;;-5.20;97.90;;;;;;4885434;29;19993;-83
2023/02/09 07:10:11;;;;;;;;;;;-5.10;97.80;;;;;;4893143;29;19919;-81
2023/02/09 07:12:37;;;;;;;;;;;-5.10;97.70;;;;;;4908262;29;20073;-82
2023/02/09 07:15:02;;;;;;;;;;;-5.00;97.80;;;;;;4890355;29;19937;-83
2023/02/09 07:17:28;;;;;;;;;;;-4.90;97.80;;;;;;4909029;29;19916;-82
2023/02/09 07:19:54;;;;;;;;;;;-4.80;97.70;;;;;;4894715;29;19981;-83
2023/02/09 07:22:21;;;;;;;;;;;-4.70;97.60;;;;;;4890900;29;19912;-83
2023/02/09 07:24:47;;;;;;;;;;;-4.70;97.50;;;;;;4907724;29;19947;-83
2023/02/09 07:27:13;;;;;;;;;;;-4.60;97.40;;;;;;4926613;29;19919;-81
2023/02/09 07:29:38;;;;;;;;;;;-4.50;97.30;;;;;;4907835;29;19944;-82
2023/02/09 07:32:04;;;;;;;;;;;-4.40;97.10;;;;;;4890258;29;19937;-82
2023/02/09 07:34:29;;;;;;;;;;;-4.30;96.90;;;;;;4907087;29;19918;-83
2023/02/09 07:36:55;;;;;;;;;;;-4.30;96.80;;;;;;4907951;29;19911;-83
2023/02/09 07:39:21;;;;;;;;;;;-4.10;96.70;;;;;;4890481;29;19912;-84
2023/02/09 07:41:46;;;;;;;;;;;-4.00;96.60;;;;;;4910502;29;19958;-83
2023/02/09 07:44:12;;;;;;;;;;;-3.90;96.30;;;;;;4890859;29;19924;-84
2023/02/09 07:46:37;;;;;;;;;;;-3.90;96.10;;;;;;4908126;29;19912;-82
2023/02/09 07:49:03;;;;;;;;;;;-3.70;96.10;;;;;;4906873;29;19899;-83
2023/02/09 07:51:28;;;;;;;;;;;-3.20;96.20;;;;;;4891642;29;19908;-83
2023/02/09 07:53:55;;;;;;;;;;;-2.40;95.10;;;;;;4891560;29;19912;-83
2023/02/09 07:56:21;;;;;;;;;;;-2.00;93.40;;;;;;4911673;29;19963;-84
2023/02/09 07:58:46;;;;;;;;;;;-2.00;92.30;;;;;;4911366;29;19911;-83
2023/02/09 08:01:12;;;;;;;;;;;-2.30;92.10;;;;;;4921160;29;20286;-82
2023/02/09 08:03:38;;;;;;;;;;;-2.40;92.50;;;;;;4905939;29;19923;-81
2023/02/09 08:06:11;;;;;;;;;;;-2.40;92.30;;;;;;4879313;29;19992;-82
2023/02/09 08:08:36;;;;;;;;;;;-2.40;92.70;;;;;;4888739;29;19912;-84
2023/02/09 08:11:04;;;;;;;;;;;-1.10;93.50;;;;;;4887902;29;19958;-81
2023/02/09 08:13:31;;;;;;;;;;;0.40;90.70;;;;;;4890571;29;19931;-81
2023/02/09 08:15:59;;;;;;;;;;;1.00;84.70;;;;;;4888903;29;19911;-84
2023/02/09 08:18:28;;;;;;;;;;;0.60;81.70;;;;;;4887131;29;19912;-82
2023/02/09 08:20:53;;;;;;;;;;;0.10;81.90;;;;;;4890011;29;19991;-81
2023/02/09 08:23:24;;;;;;;;;;;-0.30;82.80;;;;;;4888081;29;19920;-84
2023/02/09 08:25:50;;;;;;;;;;;-0.60;83.80;;;;;;4888930;29;19915;-79
2023/02/09 08:28:17;;;;;;;;;;;0.40;86.60;;;;;;4889890;29;19912;-81
2023/02/09 08:30:42;;;;;;;;;;;2.20;81.70;;;;;;4898516;29;19922;-81
2023/02/09 08:33:08;;;;;;;;;;;2.30;76.00;;;;;;4910824;29;19912;-81
2023/02/09 08:35:33;;;;;;;;;;;1.60;74.50;;;;;;4896506;29;20340;-82
2023/02/09 08:38:00;;;;;;;;;;;1.10;75.50;;;;;;4910764;29;19978;-82
2023/02/09 08:40:26;;;;;;;;;;;0.80;76.50;;;;;;4891406;29;19940;-81
2023/02/09 08:42:52;;;;;;;;;;;0.50;77.20;;;;;;4906575;29;20298;-81
2023/02/09 08:45:17;;;;;;;;;;;0.30;78.00;;;;;;4907803;29;19912;-82
2023/02/09 08:47:43;;;;;;;;;;;0.30;78.50;;;;;;4905253;29;19918;-81
2023/02/09 08:50:08;;;;;;;;;;;0.30;78.90;;;;;;4885632;29;19975;-80
2023/02/09 08:52:34;;;;;;;;;;;0.20;78.60;;;;;;4892668;29;19915;-81
2023/02/09 08:54:59;;;;;;;;;;;0.20;78.50;;;;;;4891626;29;19915;-80
2023/02/09 08:57:25;;;;;;;;;;;0.30;78.60;;;;;;4892247;29;20376;-83
2023/02/09 08:59:51;;;;;;;;;;;0.50;78.30;;;;;;4898718;29;19943;-79
2023/02/09 09:02:16;;;;;;;;;;;0.60;77.90;;;;;;4888045;29;19912;-80
2023/02/09 09:04:42;;;;;;;;;;;0.80;77.80;;;;;;4884769;29;20254;-79
2023/02/09 09:07:07;;;;;;;;;;;1.00;77.60;;;;;;4885392;29;19916;-81
2023/02/09 09:09:33;;;;;;;;;;;1.20;77.00;;;;;;4901058;29;19915;-81
2023/02/09 09:11:59;;;;;;;;;;;1.30;76.50;;;;;;4896039;29;19904;-80
2023/02/09 09:14:30;;;;;;;;;;;1.50;74.60;;;;;;4918513;29;20365;-83
2023/02/09 09:16:57;;;;;;;;;;;1.60;74.40;;;;;;4898782;29;19924;-82
2023/02/09 09:19:23;;;;;;;;;;;1.70;73.30;;;;;;4896349;29;19916;-82
2023/02/09 09:21:48;;;;;;;;;;;1.90;73.00;;;;;;4902199;29;19937;-82
2023/02/09 09:24:15;;;;;;;;;;;2.00;72.60;;;;;;4871500;29;19908;-79
2023/02/09 09:26:40;;;;;;;;;;;2.10;72.00;;;;;;4889093;29;19942;-82
2023/02/09 09:29:06;;;;;;;;;;;2.20;71.30;;;;;;4873234;29;19916;-82
2023/02/09 09:31:32;;;;;;;;;;;2.30;70.50;;;;;;4889303;29;19922;-80
2023/02/09 09:33:58;;;;;;;;;;;2.40;70.10;;;;;;4881791;29;19923;-79
2023/02/09 09:36:24;;;;;;;;;;;2.50;69.70;;;;;;4892646;29;19912;-82
2023/02/09 09:38:49;;;;;;;;;;;2.70;69.60;;;;;;4892556;29;19943;-81
2023/02/09 09:41:30;;;;;;;;;;;2.90;68.20;;;;;;4892749;29;19911;-82
2023/02/09 09:43:57;;;;;;;;;;;3.00;66.90;;;;;;4875683;29;19959;-82
2023/02/09 09:46:34;;;;;;;;;;;3.20;66.10;;;;;;4893276;29;19922;-82
2023/02/09 09:48:59;;;;;;;;;;;3.60;66.10;;;;;;4896084;29;19915;-82
2023/02/09 09:51:28;;;;;;;;;;;4.30;64.70;;;;;;4896227;29;20341;-83
2023/02/09 09:53:55;;;;;;;;;;;4.80;62.70;;;;;;4907455;29;19915;-82
2023/02/09 09:56:21;;;;;;;;;;;4.90;61.40;;;;;;4908010;29;19912;-82
2023/02/09 09:58:50;;;;;;;;;;;4.80;61.20;;;;;;4881572;29;20083;-81
2023/02/09 10:01:17;;;;;;;;;;;5.10;61.30;;;;;;4898158;29;19916;-83
2023/02/09 10:03:43;;;;;;;;;;;5.60;60.00;;;;;;4902299;29;20067;-82
2023/02/09 10:06:16;;;;;;;;;;;5.40;58.00;;;;;;4894529;29;19923;-82
2023/02/09 10:08:45;;;;;;;;;;;5.00;58.10;;;;;;4911650;29;19912;-82
2023/02/09 10:11:15;;;;;;;;;;;4.80;58.40;;;;;;4894586;29;19936;-84
2023/02/09 10:13:48;;;;;;;;;;;4.60;59.20;;;;;;4895450;29;19904;-81
2023/02/09 10:16:15;;;;;;;;;;;4.50;58.90;;;;;;4895975;29;19943;-82
2023/02/09 10:18:42;;;;;;;;;;;4.60;58.90;;;;;;4895489;29;19920;-83
2023/02/09 10:21:09;;;;;;;;;;;4.60;58.60;;;;;;4891673;29;19912;-82
2023/02/09 10:23:37;;;;;;;;;;;4.50;58.60;;;;;;4893785;29;19928;-83
2023/02/09 10:26:15;;;;;;;;;;;4.40;58.70;;;;;;4890533;29;19982;-80
2023/02/09 10:28:45;;;;;;;;;;;4.40;58.60;;;;;;4921211;29;19959;-82
2023/02/09 10:31:16;;;;;;;;;;;4.50;58.90;;;;;;4893240;29;19911;-82
2023/02/09 10:33:43;;;;;;;;;;;4.50;58.40;;;;;;4910238;29;19911;-83
2023/02/09 10:36:21;;;;;;;;;;;4.60;58.50;;;;;;4889342;29;19912;-82
2023/02/09 10:38:46;;;;;;;;;;;4.70;58.20;;;;;;4893002;29;19912;-83
2023/02/09 10:41:12;;;;;;;;;;;4.80;58.00;;;;;;4894041;29;19927;-82
2023/02/09 10:43:38;;;;;;;;;;;4.80;58.00;;;;;;4875694;29;20452;-80
2023/02/09 10:46:11;;;;;;;;;;;4.80;58.20;;;;;;4904626;29;19919;-80
2023/02/09 10:48:44;;;;;;;;;;;4.80;58.30;;;;;;4910603;29;20006;-80
2023/02/09 10:51:27;;;;;;;;;;;4.80;57.90;;;;;;4878524;29;20251;-81
2023/02/09 10:54:03;;;;;;;;;;;5.00;57.50;;;;;;4901059;29;20444;-81
2023/02/09 10:56:49;;;;;;;;;;;5.00;57.00;;;;;;4919306;29;19912;-82
2023/02/09 10:59:16;;;;;;;;;;;5.00;56.70;;;;;;4921348;29;19947;-80
2023/02/09 11:01:43;;;;;;;;;;;5.10;56.60;;;;;;4917087;29;19940;-86
2023/02/09 11:04:14;;;;;;;;;;;5.10;56.30;;;;;;4910275;29;19920;-84
2023/02/09 11:06:42;;;;;;;;;;;5.10;55.70;;;;;;4891285;29;19975;-83
2023/02/09 11:09:13;;;;;;;;;;;5.10;55.50;;;;;;4909147;29;19911;-83
2023/02/09 11:11:39;;;;;;;;;;;5.20;55.50;;;;;;4893309;29;19911;-83
2023/02/09 11:14:12;;;;;;;;;;;5.30;55.20;;;;;;4908707;29;19920;-83
2023/02/09 11:16:55;;;;;;;;;;;5.40;54.90;;;;;;4894710;29;19915;-80
2023/02/09 11:19:26;;;;;;;;;;;5.40;54.70;;;;;;4911585;29;19915;-79
2023/02/09 11:22:01;;;;;;;;;;;5.40;54.40;;;;;;4926007;23;19935;-85
2023/02/09 11:24:32;;;;;;;;;;;5.40;54.20;;;;;;4942287;29;19911;-84
2023/02/09 11:27:05;;;;;;;;;;;5.40;54.30;;;;;;4940366;28;19919;-83
2023/02/09 11:29:56;;;;;;;;;;;5.30;54.20;;;;;;4940707;28;19903;-84
2023/02/09 11:32:21;;;;;;;;;;;5.30;54.30;;;;;;4925700;28;19911;-86
2023/02/09 11:35:05;;;;;;;;;;;5.40;54.10;;;;;;4942126;28;19987;-84
2023/02/09 11:37:50;;;;;;;;;;;5.40;53.80;;;;;;4925200;28;19946;-83
2023/02/09 11:40:21;;;;;;;;;;;5.40;53.80;;;;;;4941847;28;19971;-83
2023/02/09 11:42:56;;;;;;;;;;;5.30;54.30;;;;;;4941445;28;19903;-84
2023/02/09 11:45:40;;;;;;;;;;;5.30;54.70;;;;;;4940350;28;19926;-83
2023/02/09 11:48:12;;;;;;;;;;;5.40;54.90;;;;;;4944692;28;19907;-85
2023/02/09 11:50:37;;;;;;;;;;;5.40;54.90;;;;;;4957192;28;19910;-83
2023/02/09 11:53:09;;;;;;;;;;;5.50;55.60;;;;;;4943129;28;19919;-84
2023/02/09 11:55:37;;;;;;;;;;;6.00;55.60;;;;;;4943633;28;19903;-84
2023/02/09 11:58:23;;;;;;;;;;;6.50;53.20;;;;;;4929631;28;19907;-84
2023/02/09 12:00:52;;;;;;;;;;;6.40;52.50;;;;;;4942117;28;19941;-82
2023/02/09 12:03:18;;;;;;;;;;;6.10;53.10;;;;;;4925549;28;20160;-84
2023/02/09 12:05:44;;;;;;;;;;;6.00;54.30;;;;;;4922472;29;19904;-84
2023/02/09 12:08:19;;;;;;;;;;;6.00;54.60;;;;;;4924959;29;19907;-82
2023/02/09 12:10:48;;;;;;;;;;;5.90;54.70;;;;;;4941444;28;19903;-84
2023/02/09 12:13:25;;;;;;;;;;;6.00;54.80;;;;;;4940451;28;19923;-83
2023/02/09 12:15:53;;;;;;;;;;;6.00;54.80;;;;;;4940704;28;19927;-83
2023/02/09 12:18:23;;;;;;;;;;;6.10;54.60;;;;;;4926791;28;19932;-83
2023/02/09 12:20:56;;;;;;;;;;;6.10;54.90;;;;;;4941201;28;19899;-83
2023/02/09 12:23:29;;;;;;;;;;;6.10;55.30;;;;;;4941293;28;19923;-83
2023/02/09 12:26:21;;;;;;;;;;;6.20;55.60;;;;;;4940708;29;19915;-82
2023/02/09 12:29:02;;;;;;;;;;;6.20;55.20;;;;;;4939489;28;19929;-83
2023/02/09 12:31:28;;;;;;;;;;;6.20;55.40;;;;;;4935737;28;19930;-82
2023/02/09 12:33:56;;;;;;;;;;;6.10;55.60;;;;;;4937515;29;19915;-83
2023/02/09 12:36:29;;;;;;;;;;;6.20;56.30;;;;;;4938594;28;19979;-83
2023/02/09 12:38:56;;;;;;;;;;;6.50;56.00;;;;;;4940887;29;19915;-82
2023/02/09 12:41:48;;;;;;;;;;;6.80;54.70;;;;;;4955577;28;19920;-83
2023/02/09 12:44:14;;;;;;;;;;;6.90;54.40;;;;;;4924640;29;19911;-82
2023/02/09 12:46:54;;;;;;;;;;;6.70;54.60;;;;;;4939018;29;19937;-83
2023/02/09 12:49:26;;;;;;;;;;;6.60;54.90;;;;;;4932238;29;19922;-83
2023/02/09 12:51:52;;;;;;;;;;;6.60;55.00;;;;;;4959836;29;19991;-84
2023/02/09 12:54:29;;;;;;;;;;;6.50;55.40;;;;;;4958610;29;20081;-83
2023/02/09 12:56:55;;;;;;;;;;;6.60;55.50;;;;;;4941437;29;19922;-82
2023/02/09 12:59:22;;;;;;;;;;;6.60;55.20;;;;;;4923447;29;19915;-82
2023/02/09 13:02:03;;;;;;;;;;;6.60;56.20;;;;;;4938747;29;19911;-82
2023/02/09 13:04:37;;;;;;;;;;;6.60;56.10;;;;;;4937035;29;19950;-82
2023/02/09 13:07:06;;;;;;;;;;;6.60;56.10;;;;;;4936944;29;19918;-84
2023/02/09 13:09:34;;;;;;;;;;;6.60;56.40;;;;;;4937856;29;19919;-82
2023/02/09 13:12:03;;;;;;;;;;;6.50;56.30;;;;;;4939085;29;19919;-82
2023/02/09 13:14:29;;;;;;;;;;;6.60;56.10;;;;;;4938889;29;19903;-83
2023/02/09 13:16:58;;;;;;;;;;;6.50;56.20;;;;;;4940592;29;19900;-83
2023/02/09 13:19:23;;;;;;;;;;;6.60;56.00;;;;;;4948805;29;19923;-82
2023/02/09 13:22:07;;;;;;;;;;;6.50;56.60;;;;;;4941582;28;19930;-82
2023/02/09 13:24:52;;;;;;;;;;;6.50;56.90;;;;;;4921818;29;19915;-82
2023/02/09 13:27:19;;;;;;;;;;;6.60;55.40;;;;;;4937008;28;19915;-83
2023/02/09 13:29:52;;;;;;;;;;;6.60;55.60;;;;;;4931908;29;19915;-83
2023/02/09 13:32:33;;;;;;;;;;;6.50;55.40;;;;;;4929025;29;19918;-82
2023/02/09 13:35:37;;;;;;;;;;;6.50;55.80;;;;;;4930207;29;19991;-84
2023/02/09 13:38:14;;;;;;;;;;;6.50;56.00;;;;;;4885127;29;19916;-84
2023/02/09 13:40:44;;;;;;;;;;;6.50;56.00;;;;;;4878321;29;19916;-84
2023/02/09 13:43:09;;;;;;;;;;;6.60;56.00;;;;;;4909348;29;19912;-83
2023/02/09 13:45:35;;;;;;;;;;;6.60;55.80;;;;;;4922502;29;19911;-82
2023/02/09 13:48:03;;;;;;;;;;;6.60;55.90;;;;;;4935852;29;19916;-84
2023/02/09 13:50:30;;;;;;;;;;;6.60;56.40;;;;;;4911664;29;19919;-84
2023/02/09 13:53:09;;;;;;;;;;;6.60;56.10;;;;;;4927717;29;19915;-83
2023/02/09 13:55:38;;;;;;;;;;;6.60;56.40;;;;;;4913151;29;19922;-84
2023/02/09 13:58:13;;;;;;;;;;;6.60;56.50;;;;;;4921174;29;19954;-82
2023/02/09 14:00:40;;;;;;;;;;;6.60;56.60;;;;;;4907015;29;19915;-84
2023/02/09 14:03:10;;;;;;;;;;;6.60;56.40;;;;;;4929287;29;19973;-84
2023/02/09 14:05:39;;;;;;;;;;;6.50;56.70;;;;;;4927092;29;19934;-85
2023/02/09 14:08:05;;;;;;;;;;;6.50;56.70;;;;;;4909961;29;20449;-86
2023/02/09 14:10:32;;;;;;;;;;;6.50;57.00;;;;;;4926722;29;20340;-86
2023/02/09 14:13:18;;;;;;;;;;;6.50;57.00;;;;;;4910582;29;19915;-84
2023/02/09 14:16:07;;;;;;;;;;;6.40;56.30;;;;;;4922716;29;19918;-84
2023/02/09 14:18:32;;;;;;;;;;;6.40;56.80;;;;;;4924593;29;19954;-84
2023/02/09 14:20:58;;;;;;;;;;;6.40;57.30;;;;;;4920589;29;20296;-84
2023/02/09 14:23:24;;;;;;;;;;;6.40;57.40;;;;;;4929052;29;19919;-84
2023/02/09 14:26:15;;;;;;;;;;;6.20;57.80;;;;;;4911975;29;20333;-85
2023/02/09 14:28:48;;;;;;;;;;;6.10;58.70;;;;;;4929622;29;19979;-85
2023/02/09 14:31:19;;;;;;;;;;;6.10;59.00;;;;;;4930028;29;19911;-85
2023/02/09 14:33:47;;;;;;;;;;;6.10;59.00;;;;;;4930049;29;20273;-85
2023/02/09 14:36:31;;;;;;;;;;;6.10;58.80;;;;;;4930343;29;19943;-84
2023/02/09 14:39:08;;;;;;;;;;;6.00;59.10;;;;;;4930101;29;19911;-85